createdAt,value
2022-08-05T00:00:46.664Z,52.22
2022-08-05T00:01:48.555Z,53.46
2022-08-05T00:02:51.409Z,41.49
2022-08-05T00:03:44.499Z,52.11
2022-08-05T00:04:43.464Z,40.85
2022-08-05T00:06:06.539Z,55.73
2022-08-05T00:06:44.445Z,58.62
2022-08-05T00:08:00.093Z,44.48
2022-08-05T00:08:44.467Z,43.27
2022-08-05T00:09:43.425Z,39.85
2022-08-05T00:10:43.410Z,52.94
2022-08-05T00:11:48.240Z,48.06
2022-08-05T00:12:56.233Z,57.37
2022-08-05T00:13:44.398Z,44.71
2022-08-05T00:14:44.414Z,50.68
2022-08-05T00:15:56.021Z,60.69
2022-08-05T00:16:53.015Z,42.67
2022-08-05T00:17:44.366Z,42.42
2022-08-05T00:18:44.228Z,48.64
2022-08-05T00:19:45.614Z,43.86
2022-08-05T00:20:44.344Z,51.62
2022-08-05T00:21:43.342Z,47.31
2022-08-05T00:22:47.105Z,46.39
2022-08-05T00:23:46.830Z,49.81
2022-08-05T00:24:44.314Z,51.22
2022-08-05T00:25:46.092Z,45.10
2022-08-05T00:26:50.859Z,52.88
2022-08-05T00:27:44.290Z,50.57
2022-08-05T00:28:43.317Z,48.22
2022-08-05T00:29:43.282Z,43.00
2022-08-05T00:30:44.190Z,41.14
2022-08-05T00:32:10.216Z,35.71
2022-08-05T00:32:44.252Z,40.02
2022-08-05T00:34:54.742Z,51.17
2022-08-05T00:35:03.982Z,52.43
2022-08-05T00:36:14.814Z,44.21
2022-08-05T00:37:10.805Z,48.73
2022-08-05T00:37:52.597Z,42.06
2022-08-05T00:38:44.209Z,56.06
2022-08-05T00:39:57.180Z,53.03
2022-08-05T00:40:51.954Z,43.56
2022-08-05T00:41:52.232Z,55.25
2022-08-05T00:42:44.180Z,47.36
2022-08-05T00:43:49.752Z,53.76
2022-08-05T00:44:44.184Z,49.21
2022-08-05T00:45:44.013Z,55.53
2022-08-05T00:46:43.535Z,55.85
2022-08-05T00:47:56.264Z,57.75
2022-08-05T00:48:51.312Z,57.78
2022-08-05T00:49:44.609Z,53.62
2022-08-05T00:50:46.108Z,57.69
2022-08-05T00:51:51.013Z,54.93
2022-08-05T00:52:45.374Z,51.72
2022-08-05T00:54:00.921Z,54.35
2022-08-05T00:54:44.113Z,49.91
2022-08-05T00:55:43.791Z,50.83
2022-08-05T00:56:45.032Z,46.84
2022-08-05T00:57:58.549Z,48.44
2022-08-05T00:58:45.013Z,47.36
2022-08-05T00:59:44.661Z,50.74
2022-08-05T01:00:43.076Z,41.66
2022-08-05T01:01:48.673Z,61.71
2022-08-05T01:02:44.029Z,54.85
2022-08-05T01:03:43.023Z,47.89
2022-08-05T01:04:44.037Z,48.04
2022-08-05T01:05:43.007Z,61.97
2022-08-05T01:06:43.773Z,56.13
2022-08-05T01:08:40.968Z,60.42
2022-08-05T01:08:44.693Z,56.42
2022-08-05T01:09:43.992Z,47.82
2022-08-05T01:10:52.400Z,38.68
2022-08-05T01:11:43.953Z,45.89
2022-08-05T01:12:42.944Z,60.21
2022-08-05T01:13:59.119Z,52.10
2022-08-05T01:14:43.958Z,51.57
2022-08-05T01:15:47.808Z,53.58
2022-08-05T01:16:44.266Z,55.68
2022-08-05T01:17:44.238Z,53.98
2022-08-05T01:18:42.898Z,43.82
2022-08-05T01:20:02.001Z,54.40
2022-08-05T01:20:43.883Z,50.08
2022-08-05T01:21:42.878Z,49.96
2022-08-05T01:22:47.075Z,36.75
2022-08-05T01:23:42.861Z,35.63
2022-08-05T01:24:43.881Z,37.71
2022-08-05T01:25:42.836Z,51.51
2022-08-05T01:26:44.836Z,52.83
2022-08-05T01:27:50.770Z,38.05
2022-08-05T01:28:43.824Z,49.38
2022-08-05T01:29:42.946Z,57.12
2022-08-05T01:30:53.558Z,62.13
2022-08-05T01:31:45.207Z,56.40
2022-08-05T01:32:42.795Z,50.11
2022-08-05T01:33:42.783Z,54.03
2022-08-05T01:34:43.802Z,63.35
2022-08-05T01:35:50.988Z,46.43
2022-08-05T01:36:46.879Z,51.52
2022-08-05T01:37:44.426Z,49.35
2022-08-05T01:38:42.746Z,55.85
2022-08-05T01:39:46.518Z,62.65
2022-08-05T01:40:43.730Z,54.03
2022-08-05T01:41:44.483Z,46.46
2022-08-05T01:42:42.724Z,39.79
2022-08-05T01:43:42.712Z,43.77
2022-08-05T01:44:42.734Z,38.65
2022-08-05T01:45:43.007Z,49.74
2022-08-05T01:46:46.178Z,42.11
2022-08-05T01:47:43.741Z,44.55
2022-08-05T01:48:42.670Z,54.33
2022-08-05T01:50:01.923Z,50.37
2022-08-05T01:50:50.860Z,47.72
2022-08-05T01:51:43.647Z,54.17
2022-08-05T01:52:43.638Z,43.22
2022-08-05T01:53:57.922Z,41.43
2022-08-05T01:54:45.736Z,53.14
2022-08-05T01:55:42.615Z,47.53
2022-08-05T01:58:11.544Z,45.19
2022-08-05T01:58:13.082Z,51.31
2022-08-05T01:58:44.958Z,40.62
2022-08-05T01:59:47.058Z,49.60
2022-08-05T02:00:42.580Z,51.09
2022-08-05T02:01:42.641Z,50.24
2022-08-05T02:02:46.466Z,47.52
2022-08-05T02:03:43.570Z,44.47
2022-08-05T02:04:42.573Z,51.49
2022-08-05T02:05:42.730Z,49.02
2022-08-05T02:06:42.536Z,44.78
2022-08-05T02:07:42.526Z,51.06
2022-08-05T02:08:54.893Z,49.77
2022-08-05T02:09:43.547Z,59.69
2022-08-05T02:10:42.516Z,46.48
2022-08-05T02:11:42.520Z,52.97
2022-08-05T02:12:43.492Z,46.33
2022-08-05T02:13:53.394Z,46.30
2022-08-05T02:14:43.481Z,53.43
2022-08-05T02:15:42.499Z,52.43
2022-08-05T02:16:42.523Z,44.72
2022-08-05T02:18:27.900Z,48.58
2022-08-05T02:18:43.450Z,55.11
2022-08-05T02:19:47.015Z,47.60
2022-08-05T02:20:42.530Z,45.93
2022-08-05T02:21:43.274Z,43.13
2022-08-05T02:22:42.422Z,52.51
2022-08-05T02:23:42.412Z,46.96
2022-08-05T02:24:42.399Z,45.99
2022-08-05T02:25:49.146Z,54.82
2022-08-05T02:26:51.862Z,43.24
2022-08-05T02:27:59.273Z,47.52
2022-08-05T02:28:46.000Z,46.24
2022-08-05T02:29:58.758Z,43.49
2022-08-05T02:30:54.566Z,50.05
2022-08-05T02:31:43.350Z,57.90
2022-08-05T02:32:42.341Z,69.88
2022-08-05T02:33:42.329Z,71.86
2022-08-05T02:34:43.323Z,71.00
2022-08-05T02:35:50.960Z,74.10
2022-08-05T02:36:43.303Z,73.63
2022-08-05T02:37:42.294Z,69.56
2022-08-05T02:38:43.350Z,65.75
2022-08-05T02:39:42.388Z,70.92
2022-08-05T02:40:43.300Z,70.00
2022-08-05T02:41:57.908Z,64.86
2022-08-05T02:42:43.256Z,64.19
2022-08-05T02:44:02.640Z,68.63
2022-08-05T02:44:43.246Z,65.65
2022-08-05T02:45:51.889Z,65.06
2022-08-05T02:46:53.806Z,63.88
2022-08-05T02:48:06.878Z,63.14
2022-08-05T02:48:43.450Z,61.56
2022-08-05T02:49:42.212Z,60.41
2022-08-05T02:50:43.682Z,55.74
2022-08-05T02:52:04.242Z,65.62
2022-08-05T02:52:43.185Z,59.68
2022-08-05T02:53:42.173Z,56.25
2022-08-05T02:54:42.625Z,61.48
2022-08-05T02:55:54.300Z,59.71
2022-08-05T02:56:43.444Z,56.62
2022-08-05T02:58:11.605Z,58.63
2022-08-05T02:58:43.764Z,57.02
2022-08-05T02:59:50.747Z,54.76
2022-08-05T03:00:45.977Z,63.75
2022-08-05T03:01:42.174Z,54.26
2022-08-05T03:02:42.885Z,55.49
2022-08-05T03:04:02.106Z,56.24
2022-08-05T03:04:43.090Z,58.07
2022-08-05T03:06:54.658Z,60.82
2022-08-05T03:06:56.395Z,65.89
2022-08-05T03:08:04.421Z,63.31
2022-08-05T03:08:43.058Z,56.29
2022-08-05T03:09:43.950Z,57.86
2022-08-05T03:10:43.043Z,52.66
2022-08-05T03:11:57.390Z,56.76
2022-08-05T03:12:43.041Z,60.15
2022-08-05T03:13:51.838Z,57.44
2022-08-05T03:14:45.995Z,65.20
2022-08-05T03:15:43.004Z,62.41
2022-08-05T03:16:42.013Z,57.40
2022-08-05T03:17:42.194Z,62.44
2022-08-05T03:18:42.082Z,61.21
2022-08-05T03:19:42.099Z,61.41
2022-08-05T03:20:48.672Z,62.54
2022-08-05T03:21:49.535Z,59.12
2022-08-05T03:22:46.766Z,58.43
2022-08-05T03:23:42.938Z,57.72
2022-08-05T03:24:41.935Z,60.79
2022-08-05T03:26:04.803Z,56.31
2022-08-05T03:26:42.946Z,59.24
2022-08-05T03:27:59.064Z,56.63
2022-08-05T03:28:42.899Z,63.87
2022-08-05T03:29:45.166Z,63.36
2022-08-05T03:30:42.886Z,60.62
2022-08-05T03:31:56.462Z,58.83
2022-08-05T03:32:42.872Z,63.05
2022-08-05T03:33:49.287Z,60.03
2022-08-05T03:34:50.996Z,59.66
2022-08-05T03:35:42.841Z,63.07
2022-08-05T03:36:41.859Z,62.49
2022-08-05T03:37:46.674Z,61.57
2022-08-05T03:38:42.825Z,61.47
2022-08-05T03:39:57.673Z,61.08
2022-08-05T03:40:45.419Z,62.55
2022-08-05T03:41:46.662Z,62.10
2022-08-05T03:42:51.723Z,56.87
2022-08-05T03:44:09.597Z,61.45
2022-08-05T03:44:42.773Z,54.67
2022-08-05T03:45:58.216Z,63.18
2022-08-05T03:46:42.757Z,65.07
2022-08-05T03:47:42.032Z,66.36
2022-08-05T03:48:41.741Z,62.14
2022-08-05T03:49:51.405Z,57.03
2022-08-05T03:50:42.728Z,64.13
2022-08-05T03:52:48.331Z,61.36
2022-08-05T03:54:59.143Z,63.08
2022-08-05T03:55:00.424Z,55.96
2022-08-05T03:55:54.081Z,59.77
2022-08-05T03:56:04.360Z,63.81
2022-08-05T03:56:42.680Z,60.14
2022-08-05T03:57:44.365Z,60.97
2022-08-05T03:58:41.667Z,58.64
2022-08-05T03:59:47.132Z,56.42
2022-08-05T04:00:44.246Z,64.40
2022-08-05T04:01:42.695Z,58.43
2022-08-05T04:02:52.052Z,59.22
2022-08-05T04:04:09.707Z,59.97
2022-08-05T04:04:42.616Z,63.06
2022-08-05T04:05:41.621Z,59.84
2022-08-05T04:06:47.653Z,59.11
2022-08-05T04:07:57.961Z,61.18
2022-08-05T04:08:42.597Z,61.32
2022-08-05T04:09:53.503Z,62.56
2022-08-05T04:10:42.571Z,57.70
2022-08-05T04:11:50.429Z,62.65
2022-08-05T04:14:30.405Z,61.39
2022-08-05T04:15:33.249Z,56.53
2022-08-05T04:16:32.412Z,57.03
2022-08-05T04:17:50.864Z,58.61
2022-08-05T04:18:30.229Z,60.37
2022-08-05T04:19:29.214Z,61.78
2022-08-05T04:20:29.193Z,51.37
2022-08-05T04:22:09.391Z,57.56
2022-08-05T04:22:30.174Z,53.55
2022-08-05T04:24:04.655Z,59.53
2022-08-05T04:24:30.164Z,54.33
2022-08-05T04:25:56.414Z,58.02
2022-08-05T04:26:32.383Z,48.65
2022-08-05T04:27:42.152Z,56.87
2022-08-05T04:28:30.811Z,58.94
2022-08-05T04:29:29.125Z,57.37
2022-08-05T04:30:29.114Z,56.86
2022-08-05T04:31:38.417Z,60.89
2022-08-05T04:32:31.045Z,54.38
2022-08-05T04:34:17.302Z,55.11
2022-08-05T04:34:32.498Z,54.30
2022-08-05T04:36:16.417Z,53.92
2022-08-05T04:36:49.664Z,58.11
2022-08-05T04:38:02.880Z,57.26
2022-08-05T04:38:39.516Z,56.45
2022-08-05T04:39:30.120Z,59.59
2022-08-05T04:40:29.040Z,61.25
2022-08-05T04:41:36.859Z,58.28
2022-08-05T04:42:30.020Z,56.34
2022-08-05T04:43:29.040Z,57.39
2022-08-05T04:44:29.874Z,54.65
2022-08-05T04:45:31.097Z,61.47
2022-08-05T04:46:29.988Z,61.35
2022-08-05T04:47:28.980Z,58.87
2022-08-05T04:48:30.006Z,58.65
2022-08-05T04:49:38.555Z,59.41
2022-08-05T04:50:37.616Z,55.88
2022-08-05T04:51:30.305Z,62.33
2022-08-05T04:52:33.459Z,57.06
2022-08-05T04:53:28.935Z,63.75
2022-08-05T04:54:28.950Z,58.01
2022-08-05T04:56:33.173Z,61.70
2022-08-05T04:56:34.964Z,61.35
2022-08-05T04:57:29.904Z,59.87
2022-08-05T04:58:29.896Z,60.71
2022-08-05T04:59:38.735Z,61.37
2022-08-05T05:00:29.878Z,63.16
2022-08-05T05:02:05.987Z,63.16
2022-08-05T05:02:37.084Z,63.13
2022-08-05T05:03:41.961Z,64.17
2022-08-05T05:04:29.877Z,63.06
2022-08-05T05:05:29.401Z,63.70
2022-08-05T05:06:39.188Z,61.40
2022-08-05T05:07:32.749Z,62.97
2022-08-05T05:08:30.401Z,61.64
2022-08-05T05:09:28.833Z,64.66
2022-08-05T05:10:29.633Z,63.74
2022-08-05T05:11:41.497Z,57.32
2022-08-05T05:12:29.786Z,61.77
2022-08-05T05:13:32.204Z,59.57
2022-08-05T05:14:31.960Z,59.03
2022-08-05T05:15:56.522Z,57.31
2022-08-05T05:16:30.373Z,63.18
2022-08-05T05:17:56.279Z,58.58
2022-08-05T05:18:33.570Z,62.14
2022-08-05T05:19:37.044Z,60.31
2022-08-05T05:20:29.723Z,62.04
2022-08-05T05:21:28.717Z,59.72
2022-08-05T05:22:28.708Z,61.20
2022-08-05T05:23:39.097Z,57.61
2022-08-05T05:24:42.934Z,59.77
2022-08-05T05:25:40.384Z,60.55
2022-08-05T05:26:32.976Z,60.11
2022-08-05T05:27:44.969Z,59.33
2022-08-05T05:28:29.659Z,60.14
2022-08-05T05:30:03.347Z,60.15
2022-08-05T05:30:31.246Z,59.95
2022-08-05T05:31:35.910Z,61.18
2022-08-05T05:32:28.634Z,61.30
2022-08-05T05:33:28.625Z,56.12
2022-08-05T05:34:29.655Z,57.98
2022-08-05T05:35:29.139Z,60.87
2022-08-05T05:36:30.023Z,59.72
2022-08-05T05:37:37.185Z,56.34
2022-08-05T05:38:29.583Z,58.02
2022-08-05T05:39:34.492Z,60.63
2022-08-05T05:40:29.572Z,61.58
2022-08-05T05:41:40.447Z,58.29
2022-08-05T05:42:29.557Z,61.54
2022-08-05T05:43:57.109Z,61.63
2022-08-05T05:44:36.419Z,60.58
2022-08-05T05:45:29.535Z,62.69
2022-08-05T05:46:28.531Z,63.55
2022-08-05T05:47:30.533Z,59.73
2022-08-05T05:48:29.506Z,62.10
2022-08-05T05:49:28.526Z,64.06
2022-08-05T05:50:28.501Z,60.46
2022-08-05T05:51:28.491Z,61.44
2022-08-05T05:52:32.935Z,61.29
2022-08-05T05:53:29.476Z,62.18
2022-08-05T05:54:50.060Z,63.92
2022-08-05T05:55:51.636Z,61.47
2022-08-05T05:56:32.984Z,61.59
2022-08-05T05:57:42.739Z,55.92
2022-08-05T05:58:31.371Z,57.31
2022-08-05T05:59:28.706Z,57.45
2022-08-05T06:00:31.716Z,52.59
2022-08-05T06:01:37.157Z,58.06
2022-08-05T06:02:37.483Z,57.36
2022-08-05T06:03:53.864Z,55.98
2022-08-05T06:04:29.420Z,61.10
2022-08-05T06:05:28.373Z,58.57
2022-08-05T06:06:31.039Z,60.62
2022-08-05T06:07:41.851Z,54.89
2022-08-05T06:08:32.804Z,61.37
2022-08-05T06:09:51.372Z,60.21
2022-08-05T06:10:29.559Z,54.00
2022-08-05T06:11:29.329Z,61.60
2022-08-05T06:12:28.318Z,54.22
2022-08-05T06:13:28.319Z,60.59
2022-08-05T06:14:29.331Z,59.41
2022-08-05T06:16:28.928Z,60.16
2022-08-05T06:16:36.593Z,60.27
2022-08-05T06:17:31.066Z,58.99
2022-08-05T06:18:31.286Z,60.70
2022-08-05T06:19:34.854Z,61.55
2022-08-05T06:20:29.288Z,58.55
2022-08-05T06:21:36.421Z,59.11
2022-08-05T06:22:29.241Z,53.01
2022-08-05T06:23:32.261Z,57.80
2022-08-05T06:24:29.254Z,52.89
2022-08-05T06:26:13.008Z,55.77
2022-08-05T06:26:31.921Z,57.74
2022-08-05T06:28:12.854Z,55.76
2022-08-05T06:28:29.191Z,57.62
2022-08-05T06:29:52.071Z,49.41
2022-08-05T06:30:29.202Z,58.42
2022-08-05T06:31:32.014Z,51.22
2022-08-05T06:32:28.871Z,57.02
2022-08-05T06:33:33.295Z,52.93
2022-08-05T06:34:29.145Z,57.10
2022-08-05T06:36:07.684Z,58.21
2022-08-05T06:36:29.128Z,58.98
2022-08-05T06:37:57.713Z,58.29
2022-08-05T06:38:36.322Z,47.79
2022-08-05T06:39:29.157Z,56.93
2022-08-05T06:40:32.590Z,55.36
2022-08-05T06:41:28.091Z,51.03
2022-08-05T06:42:29.083Z,50.18
2022-08-05T06:43:57.713Z,51.79
2022-08-05T06:44:29.068Z,55.35
2022-08-05T06:45:45.033Z,53.80
2022-08-05T06:46:30.690Z,51.35
2022-08-05T06:48:11.288Z,57.61
2022-08-05T06:48:52.589Z,56.76
2022-08-05T06:50:01.095Z,52.34
2022-08-05T06:50:29.043Z,51.03
2022-08-05T06:51:29.841Z,52.93
2022-08-05T06:52:37.677Z,55.56
2022-08-05T06:53:29.413Z,53.25
2022-08-05T06:54:27.982Z,53.66
2022-08-05T06:55:27.998Z,49.71
2022-08-05T06:56:28.971Z,59.00
2022-08-05T06:57:57.900Z,56.11
2022-08-05T06:58:35.141Z,57.07
2022-08-05T06:59:28.950Z,59.19
2022-08-05T07:00:29.633Z,60.13
2022-08-05T07:01:32.765Z,54.65
2022-08-05T07:02:28.927Z,54.81
2022-08-05T07:03:32.574Z,50.69
2022-08-05T07:04:28.914Z,56.98
2022-08-05T07:05:37.689Z,54.63
2022-08-05T07:06:29.902Z,56.41
2022-08-05T07:07:43.149Z,59.03
2022-08-05T07:08:28.882Z,60.31
2022-08-05T07:09:32.188Z,59.20
2022-08-05T07:10:32.330Z,57.31
2022-08-05T07:11:27.871Z,49.87
2022-08-05T07:12:27.872Z,58.85
2022-08-05T07:13:56.687Z,51.93
2022-08-05T07:14:30.539Z,57.00
2022-08-05T07:16:00.437Z,55.83
2022-08-05T07:17:57.167Z,57.64
2022-08-05T07:18:00.824Z,53.16
2022-08-05T07:18:30.155Z,56.14
2022-08-05T07:20:10.487Z,49.02
2022-08-05T07:20:33.376Z,53.07
2022-08-05T07:21:28.796Z,48.04
2022-08-05T07:22:30.125Z,56.65
2022-08-05T07:23:29.687Z,47.84
2022-08-05T07:24:28.653Z,56.36
2022-08-05T07:25:56.298Z,56.91
2022-08-05T07:26:28.776Z,54.70
2022-08-05T07:27:58.180Z,55.18
2022-08-05T07:28:28.748Z,56.51
2022-08-05T07:30:24.366Z,54.29
2022-08-05T07:30:32.764Z,57.91
2022-08-05T07:31:40.870Z,49.69
2022-08-05T07:32:28.715Z,50.20
2022-08-05T07:33:37.268Z,56.44
2022-08-05T07:34:28.905Z,56.79
2022-08-05T07:36:01.814Z,53.87
2022-08-05T07:36:28.696Z,52.74
2022-08-05T07:37:36.003Z,59.91
2022-08-05T07:38:33.561Z,57.18
2022-08-05T07:40:04.716Z,59.53
2022-08-05T07:40:32.580Z,54.96
2022-08-05T07:42:07.317Z,56.15
2022-08-05T07:42:31.564Z,57.05
2022-08-05T07:43:28.635Z,53.97
2022-08-05T07:44:27.653Z,53.45
2022-08-05T07:45:56.459Z,54.09
2022-08-05T07:46:28.608Z,52.08
2022-08-05T07:47:27.603Z,54.90
2022-08-05T07:49:00.691Z,51.03
2022-08-05T07:49:28.643Z,52.28
2022-08-05T07:50:32.423Z,54.06
2022-08-05T07:51:37.057Z,56.75
2022-08-05T07:52:28.567Z,56.82
2022-08-05T07:53:36.861Z,50.55
2022-08-05T07:54:31.639Z,57.43
2022-08-05T07:56:05.141Z,47.35
2022-08-05T07:57:00.063Z,54.84
2022-08-05T07:57:56.229Z,54.53
2022-08-05T07:58:57.190Z,55.51
2022-08-05T07:59:38.295Z,55.53
2022-08-05T08:00:28.514Z,52.36
2022-08-05T08:01:27.599Z,55.46
2022-08-05T08:02:31.364Z,56.11
2022-08-05T08:03:44.582Z,57.42
2022-08-05T08:04:37.614Z,55.30
2022-08-05T08:05:28.472Z,57.35
2022-08-05T08:06:28.295Z,53.74
2022-08-05T08:07:28.426Z,54.44
2022-08-05T08:08:27.460Z,56.01
2022-08-05T08:09:29.178Z,57.66
2022-08-05T08:10:27.441Z,54.83
2022-08-05T08:11:47.637Z,57.59
2022-08-05T08:12:48.638Z,56.27
2022-08-05T08:13:28.982Z,58.67
2022-08-05T08:14:27.413Z,53.24
2022-08-05T08:16:34.530Z,57.46
2022-08-05T08:16:49.917Z,55.50
2022-08-05T08:17:28.382Z,55.47
2022-08-05T08:18:27.378Z,58.73
2022-08-05T08:20:22.990Z,59.59
2022-08-05T08:20:44.149Z,53.00
2022-08-05T08:21:28.356Z,53.11
2022-08-05T08:22:27.350Z,55.55
2022-08-05T08:24:01.193Z,54.63
2022-08-05T08:24:37.112Z,56.20
2022-08-05T08:26:00.485Z,55.50
2022-08-05T08:26:29.582Z,52.48
2022-08-05T08:27:35.685Z,55.39
2022-08-05T08:28:36.155Z,53.63
2022-08-05T08:30:04.175Z,47.29
2022-08-05T08:30:37.679Z,50.97
2022-08-05T08:31:28.286Z,52.83
2022-08-05T08:32:28.205Z,52.50
2022-08-05T08:33:27.349Z,55.37
2022-08-05T08:34:30.867Z,58.00
2022-08-05T08:35:28.271Z,51.70
2022-08-05T08:36:37.490Z,51.63
2022-08-05T08:37:28.301Z,57.66
2022-08-05T08:38:32.195Z,47.14
2022-08-05T08:39:28.240Z,53.71
2022-08-05T08:40:27.246Z,55.39
2022-08-05T08:41:50.837Z,53.08
2022-08-05T08:42:33.779Z,52.48
2022-08-05T08:45:19.497Z,54.69
2022-08-05T08:45:23.786Z,54.94
2022-08-05T08:45:29.594Z,55.08
2022-08-05T08:46:27.171Z,53.45
2022-08-05T08:48:05.917Z,53.27
2022-08-05T08:48:41.590Z,47.38
2022-08-05T08:50:23.461Z,55.13
2022-08-05T08:50:52.040Z,52.64
2022-08-05T08:52:03.623Z,51.32
2022-08-05T08:52:28.493Z,53.57
2022-08-05T08:53:27.110Z,56.15
2022-08-05T08:54:27.540Z,49.17
2022-08-05T08:56:02.163Z,54.85
2022-08-05T08:56:28.092Z,52.55
2022-08-05T08:57:42.097Z,51.74
2022-08-05T08:58:43.207Z,52.48
2022-08-05T08:59:33.654Z,51.77
2022-08-05T09:00:28.151Z,52.95
2022-08-05T09:01:27.078Z,51.47
2022-08-05T09:02:27.303Z,54.65
2022-08-05T09:03:27.037Z,53.13
2022-08-05T09:04:30.745Z,51.23
2022-08-05T09:05:38.258Z,49.17
2022-08-05T09:06:29.825Z,49.42
2022-08-05T09:07:29.184Z,49.02
2022-08-05T09:08:30.075Z,55.44
2022-08-05T09:09:34.812Z,51.21
2022-08-05T09:10:29.665Z,51.41
2022-08-05T09:11:51.449Z,52.60
2022-08-05T09:12:28.006Z,51.95
2022-08-05T09:13:31.775Z,48.92
2022-08-05T09:14:56.816Z,50.35
2022-08-05T09:15:27.971Z,48.32
2022-08-05T09:16:27.040Z,47.32
2022-08-05T09:17:40.659Z,52.02
2022-08-05T09:18:27.923Z,48.49
2022-08-05T09:19:27.777Z,49.70
2022-08-05T09:20:36.300Z,51.75
2022-08-05T09:22:17.799Z,51.51
2022-08-05T09:22:31.909Z,47.78
2022-08-05T09:23:28.838Z,52.51
2022-08-05T09:24:27.885Z,47.24
2022-08-05T09:26:01.874Z,48.00
2022-08-05T09:26:32.298Z,53.91
2022-08-05T09:28:04.537Z,48.81
2022-08-05T09:28:31.705Z,50.08
2022-08-05T09:29:30.899Z,47.47
2022-08-05T09:30:26.866Z,45.60
2022-08-05T09:32:40.017Z,48.71
2022-08-05T09:32:41.605Z,50.73
2022-08-05T09:33:34.984Z,53.05
2022-08-05T09:34:27.818Z,47.30
2022-08-05T09:35:27.601Z,50.13
2022-08-05T09:36:27.954Z,55.54
2022-08-05T09:38:12.594Z,51.84
2022-08-05T09:38:29.396Z,50.99
2022-08-05T09:39:41.880Z,50.11
2022-08-05T09:40:27.844Z,54.89
2022-08-05T09:41:26.770Z,48.90
2022-08-05T09:42:28.192Z,46.60
2022-08-05T09:43:26.746Z,49.46
2022-08-05T09:44:26.741Z,52.06
2022-08-05T09:46:06.569Z,49.87
2022-08-05T09:46:28.464Z,50.84
2022-08-05T09:47:28.620Z,51.52
2022-08-05T09:48:28.478Z,49.46
2022-08-05T09:49:40.359Z,50.59
2022-08-05T09:50:38.871Z,50.50
2022-08-05T09:51:27.694Z,50.25
2022-08-05T09:52:26.843Z,46.78
2022-08-05T09:53:53.742Z,50.37
2022-08-05T09:54:29.359Z,50.47
2022-08-05T09:55:57.872Z,55.05
2022-08-05T09:56:27.652Z,55.24
2022-08-05T09:57:26.643Z,52.49
2022-08-05T09:58:26.645Z,51.62
2022-08-05T09:59:27.401Z,49.29
2022-08-05T10:00:26.802Z,50.25
2022-08-05T10:01:32.446Z,53.46
2022-08-05T10:02:27.661Z,50.50
2022-08-05T10:03:56.943Z,52.82
2022-08-05T10:04:29.220Z,50.75
2022-08-05T10:05:26.848Z,50.93
2022-08-05T10:06:26.581Z,52.15
2022-08-05T10:07:59.401Z,54.22
2022-08-05T10:08:37.403Z,49.56
2022-08-05T10:09:29.970Z,53.18
2022-08-05T10:10:32.292Z,45.67
2022-08-05T10:11:31.309Z,52.78
2022-08-05T10:12:33.366Z,50.66
2022-08-05T10:13:27.516Z,46.17
2022-08-05T10:14:27.515Z,49.68
2022-08-05T10:15:26.539Z,53.00
2022-08-05T10:16:26.500Z,49.68
2022-08-05T10:17:38.101Z,50.15
2022-08-05T10:18:27.473Z,54.68
2022-08-05T10:19:31.841Z,51.93
2022-08-05T10:20:27.497Z,48.02
2022-08-05T10:21:26.458Z,51.53
2022-08-05T10:22:29.839Z,50.25
2022-08-05T10:23:56.216Z,50.96
2022-08-05T10:24:27.462Z,51.64
2022-08-05T10:25:26.416Z,53.52
2022-08-05T10:26:32.461Z,48.56
2022-08-05T10:28:09.651Z,55.60
2022-08-05T10:28:29.656Z,52.27
2022-08-05T10:30:41.520Z,54.26
2022-08-05T10:31:20.808Z,48.91
2022-08-05T10:32:51.792Z,51.77
2022-08-05T10:33:01.111Z,48.84
2022-08-05T10:33:28.799Z,51.75
2022-08-05T10:34:31.175Z,47.32
2022-08-05T10:35:33.968Z,53.84
2022-08-05T10:36:27.371Z,52.78
2022-08-05T10:37:26.711Z,50.25
2022-08-05T10:38:27.336Z,50.50
2022-08-05T10:40:03.507Z,50.24
2022-08-05T10:40:28.327Z,46.80
2022-08-05T10:41:26.333Z,52.36
2022-08-05T10:42:33.854Z,50.96
2022-08-05T10:43:31.017Z,50.35
2022-08-05T10:44:27.287Z,48.40
2022-08-05T10:45:40.461Z,51.88
2022-08-05T10:46:27.302Z,45.23
2022-08-05T10:47:31.163Z,52.64
2022-08-05T10:48:30.600Z,49.81
2022-08-05T10:49:33.215Z,52.62
2022-08-05T10:50:36.167Z,49.09
2022-08-05T10:51:29.167Z,50.59
2022-08-05T10:52:26.352Z,49.87
2022-08-05T10:53:26.226Z,52.08
2022-08-05T10:54:29.972Z,51.75
2022-08-05T10:55:27.211Z,48.85
2022-08-05T10:56:26.446Z,48.85
2022-08-05T10:57:26.194Z,49.66
2022-08-05T10:58:35.818Z,49.55
2022-08-05T11:00:03.391Z,51.76
2022-08-05T11:00:27.182Z,54.73
2022-08-05T11:01:28.256Z,52.44
2022-08-05T11:02:37.678Z,56.22
2022-08-05T11:03:27.382Z,50.66
2022-08-05T11:04:27.138Z,51.09
2022-08-05T11:05:29.139Z,51.59
2022-08-05T11:06:31.005Z,49.23
2022-08-05T11:07:33.197Z,50.56
2022-08-05T11:08:37.892Z,49.88
2022-08-05T11:09:45.254Z,50.70
2022-08-05T11:10:27.677Z,53.58
2022-08-05T11:11:41.958Z,53.65
2022-08-05T11:12:27.182Z,52.32
2022-08-05T11:13:26.076Z,52.80
2022-08-05T11:14:49.497Z,56.59
2022-08-05T11:15:59.338Z,52.83
2022-08-05T11:16:33.700Z,51.07
2022-08-05T11:18:09.782Z,55.34
2022-08-05T11:18:27.042Z,53.25
2022-08-05T11:20:11.577Z,51.66
2022-08-05T11:20:27.020Z,51.22
2022-08-05T11:21:26.008Z,52.36
2022-08-05T11:22:27.034Z,49.98
2022-08-05T11:23:26.008Z,53.12
2022-08-05T11:24:30.741Z,49.44
2022-08-05T11:26:04.655Z,49.21
2022-08-05T11:26:28.484Z,50.83
2022-08-05T11:27:26.998Z,48.05
2022-08-05T11:28:26.966Z,48.89
2022-08-05T11:29:25.970Z,54.16
2022-08-05T11:30:25.989Z,49.50
2022-08-05T11:31:54.345Z,55.28
2022-08-05T11:32:26.962Z,49.86
2022-08-05T11:33:25.926Z,51.63
2022-08-05T11:34:26.919Z,51.32
2022-08-05T11:35:26.250Z,51.17
2022-08-05T11:36:34.248Z,49.61
2022-08-05T11:38:26.716Z,50.99
2022-08-05T11:38:45.769Z,50.56
2022-08-05T11:39:27.095Z,49.96
2022-08-05T11:40:25.881Z,55.63
2022-08-05T11:41:56.170Z,52.13
2022-08-05T11:42:28.122Z,50.72
2022-08-05T11:44:00.760Z,53.96
2022-08-05T11:44:53.464Z,47.94
2022-08-05T11:46:23.396Z,52.52
2022-08-05T11:46:32.661Z,52.79
2022-08-05T11:47:49.074Z,51.69
2022-08-05T11:48:26.818Z,50.09
2022-08-05T11:49:25.813Z,51.27
2022-08-05T11:50:25.803Z,51.12
2022-08-05T11:51:44.367Z,51.05
2022-08-05T11:52:29.391Z,48.01
2022-08-05T11:53:25.777Z,52.90
2022-08-05T11:54:33.153Z,49.97
2022-08-05T11:55:31.793Z,53.00
2022-08-05T11:56:41.199Z,49.50
2022-08-05T11:57:27.198Z,54.21
2022-08-05T11:58:26.749Z,54.50
2022-08-05T11:59:25.729Z,50.51
2022-08-05T12:00:25.722Z,50.21
2022-08-05T12:01:25.742Z,50.97
2022-08-05T12:02:30.457Z,49.27
2022-08-05T12:03:31.556Z,50.98
2022-08-05T12:04:26.803Z,49.62
2022-08-05T12:05:36.132Z,50.20
2022-08-05T12:06:27.703Z,51.33
2022-08-05T12:08:10.191Z,50.13
2022-08-05T12:08:26.658Z,52.82
2022-08-05T12:09:38.505Z,54.83
2022-08-05T12:10:38.529Z,52.79
2022-08-05T12:11:28.435Z,54.52
2022-08-05T12:12:26.627Z,50.46
2022-08-05T12:13:47.873Z,52.82
2022-08-05T12:14:26.613Z,48.81
2022-08-05T12:15:35.732Z,55.94
2022-08-05T12:16:27.239Z,51.92
2022-08-05T12:18:09.915Z,48.72
2022-08-05T12:18:32.342Z,50.10
2022-08-05T12:20:26.184Z,52.19
2022-08-05T12:20:33.512Z,52.04
2022-08-05T12:21:29.860Z,55.84
2022-08-05T12:22:25.551Z,53.90
2022-08-05T12:23:25.547Z,52.15
2022-08-05T12:24:25.540Z,52.38
2022-08-05T12:25:28.442Z,51.28
2022-08-05T12:26:26.549Z,46.96
2022-08-05T12:27:25.704Z,50.74
2022-08-05T12:28:26.505Z,51.19
2022-08-05T12:29:25.502Z,51.63
2022-08-05T12:30:29.142Z,56.50
2022-08-05T12:31:33.665Z,52.23
2022-08-05T12:32:26.471Z,54.72
2022-08-05T12:33:27.388Z,54.01
2022-08-05T12:34:26.459Z,53.53
2022-08-05T12:35:39.545Z,53.36
2022-08-05T12:36:26.474Z,53.23
2022-08-05T12:37:30.178Z,53.19
2022-08-05T12:38:31.400Z,52.69
2022-08-05T12:39:34.334Z,51.52
2022-08-05T12:40:29.741Z,56.14
2022-08-05T12:41:25.413Z,50.22
2022-08-05T12:42:26.425Z,56.21
2022-08-05T12:43:25.393Z,55.55
2022-08-05T12:44:33.169Z,53.74
2022-08-05T12:45:42.496Z,49.85
2022-08-05T12:46:29.588Z,54.96
2022-08-05T12:47:26.768Z,55.25
2022-08-05T12:48:27.237Z,54.79
2022-08-05T12:49:25.607Z,48.53
2022-08-05T12:50:25.350Z,52.73
2022-08-05T12:52:12.921Z,55.32
2022-08-05T12:52:30.383Z,49.42
2022-08-05T12:53:37.104Z,51.46
2022-08-05T12:54:26.705Z,52.56